Language: 


Des rapports , des résumés tant et plus, au choix de chacun....


Données Historiques de Météogheer
Journalier Rapport pour Février 8, 2017 Unitée:  Les deux    Impériale   Métrique
Suivant Jour »
Journalier Hebdomadaire Mensuel Annuel Sur mesure
  Max: Min: Moyenne:
Température: 43.2 °F /  6.2 °C 36.9 °F /  2.7 °C 39.9 °F /  4.4 °C
Point de rosée: 42.6 °F /  5.9 °C 36.1 °F /  2.3 °C 39.2 °F /  4 °C
Humidité: 98% 96% 97%
Vent: 13mph /  20.9km/h - 5.2mph /  8.4km/h
Rafales: 13.2mph /  21.2km/h - -
Vent- - West
Pression: 30.3 in /  1027.0 hPa 0 in /  0.0 hPa -
Pluie: 0 in /  0.0 mm    
Historical Graphs
 
 
Données tabulaires pour Février 8, 2017
Heure Température Point de rosée Pression Vent Vent Rafales Humidité Pluie Taux (Horaire) Conditions
00:00 43.2 °F /  6.2 °C 42.6 °F /  5.9 °C 30in /  1016.8hPa WNW 2.5mph /  4.0km/h 3.6mph /  5.8km/h 98% 0.01in /  0.3mm
00:05 43.2 °F /  6.2 °C 42.6 °F /  5.9 °C 30in /  1016.8hPa Calm   2.7mph /  4.3km/h 98% 0.01in /  0.3mm
00:10 43.2 °F /  6.2 °C 42.6 °F /  5.9 °C 30in /  1016.8hPa Calm   2.7mph /  4.3km/h 98% 0.01in /  0.3mm
00:15 43.2 °F /  6.2 °C 42.6 °F /  5.9 °C 30in /  1016.8hPa NNW 2.5mph /  4.0km/h 4.5mph /  7.2km/h 98% 0.01in /  0.3mm
00:20 43.2 °F /  6.2 °C 42.6 °F /  5.9 °C 30in /  1016.8hPa Calm   4.5mph /  7.2km/h 98% 0.01in /  0.3mm
00:25 43.2 °F /  6.2 °C 42.6 °F /  5.9 °C 30in /  1016.8hPa Calm   3.8mph /  6.1km/h 98% 0.01in /  0.3mm
00:30 43.2 °F /  6.2 °C 42.6 °F /  5.9 °C 30in /  1016.8hPa North 5.4mph /  8.7km/h 5.4mph /  8.7km/h 98% 0.01in /  0.3mm
00:35 43.2 °F /  6.2 °C 42.6 °F /  5.9 °C 30in /  1016.8hPa Calm   5.4mph /  8.7km/h 98% 0.01in /  0.3mm
00:40 43 °F /  6.1 °C 42.4 °F /  5.8 °C 30in /  1016.8hPa Calm   5.4mph /  8.7km/h 98% 0.01in /  0.3mm
00:45 43 °F /  6.1 °C 42.4 °F /  5.8 °C 30in /  1016.8hPa Calm   4.3mph /  6.9km/h 98% 0in /  0.0mm
00:50 43 °F /  6.1 °C 42.4 °F /  5.8 °C 30in /  1016.8hPa NW 3.6mph /  5.8km/h 4.3mph /  6.9km/h 98% 0in /  0.0mm
00:55 43 °F /  6.1 °C 42.4 °F /  5.8 °C 30in /  1016.8hPa North 5.6mph /  9.0km/h 5.6mph /  9.0km/h 98% 0in /  0.0mm
01:00 42.8 °F /  6.0 °C 42.3 °F /  5.7 °C 30in /  1016.8hPa North 3.8mph /  6.1km/h 6mph /  9.7km/h 98% 0in /  0.0mm
01:05 42.8 °F /  6.0 °C 42.3 °F /  5.7 °C 30in /  1016.8hPa WNW 4.7mph /  7.6km/h 6mph /  9.7km/h 98% 0in /  0.0mm
01:10 42.8 °F /  6.0 °C 42.3 °F /  5.7 °C 30in /  1016.8hPa NNW 4mph /  6.4km/h 4.9mph /  7.9km/h 98% 0in /  0.0mm
01:15 42.8 °F /  6.0 °C 42.3 °F /  5.7 °C 30in /  1016.8hPa NW 4mph /  6.4km/h 4.7mph /  7.6km/h 98% 0in /  0.0mm
01:20 42.8 °F /  6.0 °C 42.3 °F /  5.7 °C 30in /  1016.8hPa Calm   4.3mph /  6.9km/h 98% 0in /  0.0mm
01:25 42.8 °F /  6.0 °C 42.3 °F /  5.7 °C 30in /  1016.1hPa NNE 2.5mph /  4.0km/h 4mph /  6.4km/h 98% 0in /  0.0mm
01:30 42.8 °F /  6.0 °C 42.3 °F /  5.7 °C 30in /  1016.1hPa NNW 3.4mph /  5.5km/h 4mph /  6.4km/h 98% 0in /  0.0mm
01:35 42.8 °F /  6.0 °C 42.3 °F /  5.7 °C 30in /  1016.1hPa North 5.4mph /  8.7km/h 5.4mph /  8.7km/h 98% 0in /  0.0mm
01:40 42.8 °F /  6.0 °C 42.3 °F /  5.7 °C 30in /  1016.1hPa NNW 2.9mph /  4.7km/h 5.4mph /  8.7km/h 98% 0in /  0.0mm
01:45 42.8 °F /  6.0 °C 42.3 °F /  5.7 °C 30in /  1016.1hPa NW 2.9mph /  4.7km/h 5.4mph /  8.7km/h 98% 0in /  0.0mm
01:50 42.8 °F /  6.0 °C 42.3 °F /  5.7 °C 30in /  1016.1hPa North 2.2mph /  3.5km/h 3.6mph /  5.8km/h 98% 0in /  0.0mm
01:55 42.6 °F /  5.9 °C 42.1 °F /  5.6 °C 30in /  1016.8hPa Calm   2.9mph /  4.7km/h 98% 0in /  0.0mm
02:02 42.6 °F /  5.9 °C 42.1 °F /  5.6 °C 0in /  0.0hPa NW 1.3mph /  2.1km/h 4.7mph /  7.6km/h 98% 0in /  0.0mm
02:07 42.6 °F /  5.9 °C 42.1 °F /  5.6 °C 30in /  1016.8hPa North 3.4mph /  5.5km/h 4.7mph /  7.6km/h 98% 0in /  0.0mm
02:12 42.4 °F /  5.8 °C 41.9 °F /  5.5 °C 30in /  1016.8hPa NNW 3.6mph /  5.8km/h 3.6mph /  5.8km/h 98% 0in /  0.0mm
02:17 42.4 °F /  5.8 °C 41.9 °F /  5.5 °C 30in /  1016.8hPa North 4mph /  6.4km/h 4mph /  6.4km/h 98% 0in /  0.0mm
02:22 42.4 °F /  5.8 °C 41.9 °F /  5.5 °C 30in /  1016.8hPa Calm   4mph /  6.4km/h 98% 0in /  0.0mm
02:27 42.3 °F /  5.7 °C 41.7 °F /  5.4 °C 30in /  1016.8hPa NNW 2.2mph /  3.5km/h 3.6mph /  5.8km/h 98% 0in /  0.0mm
02:32 42.3 °F /  5.7 °C 41.7 °F /  5.4 °C 30in /  1016.8hPa WNW 2.7mph /  4.3km/h 5.6mph /  9.0km/h 98% 0in /  0.0mm
02:37 42.3 °F /  5.7 °C 41.7 °F /  5.4 °C 30in /  1016.8hPa North 2mph /  3.2km/h 5.6mph /  9.0km/h 98% 0in /  0.0mm
02:42 42.4 °F /  5.8 °C 41.9 °F /  5.5 °C 30in /  1016.8hPa West 2.5mph /  4.0km/h 3.8mph /  6.1km/h 98% 0in /  0.0mm
02:47 42.4 °F /  5.8 °C 41.9 °F /  5.5 °C 30in /  1016.8hPa NE 4mph /  6.4km/h 4.3mph /  6.9km/h 98% 0in /  0.0mm
02:52 42.4 °F /  5.8 °C 41.9 °F /  5.5 °C 30in /  1016.8hPa North 3.4mph /  5.5km/h 5.8mph /  9.3km/h 98% 0in /  0.0mm
02:57 42.4 °F /  5.8 °C 41.9 °F /  5.5 °C 30in /  1016.8hPa North 0.9mph /  1.4km/h 5.8mph /  9.3km/h 98% 0in /  0.0mm
03:02 42.4 °F /  5.8 °C 41.9 °F /  5.5 °C 30in /  1016.8hPa NW 2.7mph /  4.3km/h 4mph /  6.4km/h 98% 0in /  0.0mm
03:07 42.4 °F /  5.8 °C 41.9 °F /  5.5 °C 30.1in /  1018.2hPa Calm   4mph /  6.4km/h 98% 0in /  0.0mm
03:12 42.4 °F /  5.8 °C 41.9 °F /  5.5 °C 30.1in /  1018.2hPa Calm   4mph /  6.4km/h 98% 0in /  0.0mm
03:17 42.4 °F /  5.8 °C 41.9 °F /  5.5 °C 30.1in /  1018.2hPa NW 3.6mph /  5.8km/h 5.4mph /  8.7km/h 98% 0in /  0.0mm
03:22 42.4 °F /  5.8 °C 41.9 °F /  5.5 °C 30in /  1016.8hPa North 3.6mph /  5.8km/h 5.8mph /  9.3km/h 98% 0in /  0.0mm
03:27 42.4 °F /  5.8 °C 41.9 °F /  5.5 °C 30in /  1016.8hPa WNW 3.8mph /  6.1km/h 5.8mph /  9.3km/h 98% 0in /  0.0mm
03:32 42.6 °F /  5.9 °C 42.1 °F /  5.6 °C 30in /  1016.8hPa NNW 2mph /  3.2km/h 5.8mph /  9.3km/h 98% 0in /  0.0mm
03:37 42.6 °F /  5.9 °C 42.1 °F /  5.6 °C 30in /  1016.8hPa NW 3.1mph /  5.0km/h 5.4mph /  8.7km/h 98% 0in /  0.0mm
03:42 42.6 °F /  5.9 °C 42.1 °F /  5.6 °C 30in /  1016.8hPa North 3.8mph /  6.1km/h 4mph /  6.4km/h 98% 0in /  0.0mm
03:47 42.6 °F /  5.9 °C 42.1 °F /  5.6 °C 30in /  1016.8hPa North 3.4mph /  5.5km/h 4mph /  6.4km/h 98% 0in /  0.0mm
03:52 42.6 °F /  5.9 °C 42.1 °F /  5.6 °C 30in /  1016.8hPa NNW 4.3mph /  6.9km/h 7.8mph /  12.6km/h 98% 0in /  0.0mm
03:57 42.6 °F /  5.9 °C 42.1 °F /  5.6 °C 30in /  1016.8hPa NNW 5.6mph /  9.0km/h 7.8mph /  12.6km/h 98% 0in /  0.0mm
04:02 42.4 °F /  5.8 °C 41.9 °F /  5.5 °C 30in /  1016.8hPa North 7.8mph /  12.6km/h 7.8mph /  12.6km/h 98% 0in /  0.0mm
04:07 42.4 °F /  5.8 °C 41.9 °F /  5.5 °C 30in /  1016.8hPa North 4.9mph /  7.9km/h 8.1mph /  13.0km/h 98% 0in /  0.0mm
04:12 42.4 °F /  5.8 °C 41.9 °F /  5.5 °C 30in /  1016.8hPa North 3.8mph /  6.1km/h 8.1mph /  13.0km/h 98% 0in /  0.0mm
04:17 42.4 °F /  5.8 °C 41.9 °F /  5.5 °C 30in /  1016.8hPa NNW 7.2mph /  11.6km/h 8.1mph /  13.0km/h 98% 0in /  0.0mm
04:22 42.3 °F /  5.7 °C 41.7 °F /  5.4 °C 30in /  1016.8hPa North 6mph /  9.7km/h 9.8mph /  15.8km/h 98% 0in /  0.0mm
04:27 42.3 °F /  5.7 °C 41.7 °F /  5.4 °C 30in /  1016.8hPa North 3.1mph /  5.0km/h 9.8mph /  15.8km/h 98% 0in /  0.0mm
04:32 42.3 °F /  5.7 °C 41.7 °F /  5.4 °C 30in /  1016.8hPa North 5.6mph /  9.0km/h 8.1mph /  13.0km/h 98% 0in /  0.0mm
04:37 42.1 °F /  5.6 °C 41.5 °F /  5.3 °C 30.1in /  1018.2hPa North 4mph /  6.4km/h 8.1mph /  13.0km/h 98% 0in /  0.0mm
04:42 42.1 °F /  5.6 °C 41.5 °F /  5.3 °C 30.1in /  1018.2hPa North 4.7mph /  7.6km/h 7.4mph /  11.9km/h 98% 0in /  0.0mm
04:47 42.1 °F /  5.6 °C 41.5 °F /  5.3 °C 30.1in /  1018.2hPa NNE 3.8mph /  6.1km/h 7.2mph /  11.6km/h 98% 0in /  0.0mm
04:52 42.1 °F /  5.6 °C 41.5 °F /  5.3 °C 30in /  1016.8hPa North 6mph /  9.7km/h 7.2mph /  11.6km/h 98% 0in /  0.0mm
04:57 42.1 °F /  5.6 °C 41.5 °F /  5.3 °C 30in /  1016.8hPa NNW 4.3mph /  6.9km/h 7.8mph /  12.6km/h 98% 0in /  0.0mm
05:02 42.1 °F /  5.6 °C 41.5 °F /  5.3 °C 30in /  1016.8hPa NNW 5.4mph /  8.7km/h 7.8mph /  12.6km/h 98% 0in /  0.0mm
05:07 42.1 °F /  5.6 °C 41.5 °F /  5.3 °C 30.1in /  1018.2hPa North 7.2mph /  11.6km/h 8.1mph /  13.0km/h 98% 0in /  0.0mm
05:12 41.9 °F /  5.5 °C 41.4 °F /  5.2 °C 30.1in /  1018.2hPa NNE 6.7mph /  10.8km/h 8.1mph /  13.0km/h 98% 0in /  0.0mm
05:17 41.9 °F /  5.5 °C 41.4 °F /  5.2 °C 30.1in /  1018.2hPa North 6.5mph /  10.5km/h 10.7mph /  17.2km/h 98% 0in /  0.0mm
05:22 41.9 °F /  5.5 °C 41.4 °F /  5.2 °C 30.1in /  1018.2hPa North 3.4mph /  5.5km/h 10.7mph /  17.2km/h 98% 0in /  0.0mm
05:27 41.9 °F /  5.5 °C 41.4 °F /  5.2 °C 30.1in /  1018.2hPa NNE 5.8mph /  9.3km/h 9.4mph /  15.1km/h 98% 0in /  0.0mm
05:32 41.9 °F /  5.5 °C 41.4 °F /  5.2 °C 30.1in /  1018.2hPa North 3.6mph /  5.8km/h 9.4mph /  15.1km/h 98% 0in /  0.0mm
05:37 41.9 °F /  5.5 °C 41.4 °F /  5.2 °C 30.1in /  1018.8hPa North 3.6mph /  5.8km/h 7.2mph /  11.6km/h 98% 0in /  0.0mm
05:42 41.7 °F /  5.4 °C 41.2 °F /  5.1 °C 30.1in /  1018.8hPa North 6mph /  9.7km/h 7.4mph /  11.9km/h 98% 0in /  0.0mm
05:47 41.5 °F /  5.3 °C 41 °F /  5.0 °C 30.1in /  1018.8hPa NNE 6.3mph /  10.1km/h 7.6mph /  12.2km/h 98% 0in /  0.0mm
05:52 41.5 °F /  5.3 °C 41 °F /  5.0 °C 30.1in /  1018.8hPa NNE 3.8mph /  6.1km/h 8.7mph /  14.0km/h 98% 0in /  0.0mm
05:57 41.5 °F /  5.3 °C 41 °F /  5.0 °C 30.1in /  1018.8hPa NNW 4.3mph /  6.9km/h 8.7mph /  14.0km/h 98% 0in /  0.0mm
06:02 41.5 °F /  5.3 °C 41 °F /  5.0 °C 30.1in /  1018.8hPa North 2.9mph /  4.7km/h 7.2mph /  11.6km/h 98% 0in /  0.0mm
06:07 41.5 °F /  5.3 °C 41 °F /  5.0 °C 30.1in /  1018.8hPa NNE 1.3mph /  2.1km/h 6.3mph /  10.1km/h 98% 0in /  0.0mm
06:12 41.5 °F /  5.3 °C 41 °F /  5.0 °C 30.1in /  1018.8hPa North 3.1mph /  5.0km/h 7.6mph /  12.2km/h 98% 0in /  0.0mm
06:17 41.4 °F /  5.2 °C 40.8 °F /  4.9 °C 30.1in /  1018.8hPa NNW 5.4mph /  8.7km/h 7.6mph /  12.2km/h 98% 0in /  0.0mm
06:22 41.4 °F /  5.2 °C 40.8 °F /  4.9 °C 30.1in /  1018.8hPa North 6mph /  9.7km/h 7.8mph /  12.6km/h 98% 0in /  0.0mm
06:27 41.4 °F /  5.2 °C 40.8 °F /  4.9 °C 30.1in /  1018.8hPa NW 3.8mph /  6.1km/h 7.8mph /  12.6km/h 98% 0in /  0.0mm
06:32 41.2 °F /  5.1 °C 40.6 °F /  4.8 °C 30.1in /  1018.8hPa North 3.4mph /  5.5km/h 8.7mph /  14.0km/h 98% 0in /  0.0mm
06:37 41 °F /  5.0 °C 40.5 °F /  4.7 °C 30.1in /  1018.8hPa North 4mph /  6.4km/h 10.1mph /  16.3km/h 98% 0in /  0.0mm
06:42 41 °F /  5.0 °C 40.5 °F /  4.7 °C 30.1in /  1018.8hPa WNW 4.9mph /  7.9km/h 10.1mph /  16.3km/h 98% 0in /  0.0mm
06:47 41 °F /  5.0 °C 40.5 °F /  4.7 °C 30.1in /  1018.8hPa NNE 2.7mph /  4.3km/h 6.3mph /  10.1km/h 98% 0in /  0.0mm
06:52 41 °F /  5.0 °C 40.5 °F /  4.7 °C 30.1in /  1018.8hPa NNW 2.7mph /  4.3km/h 6.3mph /  10.1km/h 98% 0in /  0.0mm
06:57 41 °F /  5.0 °C 40.5 °F /  4.7 °C 30.1in /  1018.8hPa North 5.8mph /  9.3km/h 8.5mph /  13.7km/h 98% 0in /  0.0mm
07:02 40.8 °F /  4.9 °C 40.3 °F /  4.6 °C 30.1in /  1018.8hPa NNW 2.9mph /  4.7km/h 8.5mph /  13.7km/h 98% 0in /  0.0mm
07:07 40.8 °F /  4.9 °C 40.3 °F /  4.6 °C 30.1in /  1018.8hPa NNE 3.1mph /  5.0km/h 8.5mph /  13.7km/h 98% 0in /  0.0mm
07:12 40.8 °F /  4.9 °C 40.3 °F /  4.6 °C 30.1in /  1018.8hPa North 2.9mph /  4.7km/h 6.9mph /  11.1km/h 98% 0in /  0.0mm
07:17 40.6 °F /  4.8 °C 40.1 °F /  4.5 °C 30.1in /  1018.8hPa North 9.6mph /  15.4km/h 9.6mph /  15.4km/h 98% 0in /  0.0mm
07:22 40.6 °F /  4.8 °C 40.1 °F /  4.5 °C 30.1in /  1018.8hPa NNE 6.3mph /  10.1km/h 9.6mph /  15.4km/h 98% 0in /  0.0mm
07:27 40.6 °F /  4.8 °C 40.1 °F /  4.5 °C 30.1in /  1018.8hPa NNE 3.6mph /  5.8km/h 10.1mph /  16.3km/h 98% 0in /  0.0mm
07:32 40.5 °F /  4.7 °C 39.9 °F /  4.4 °C 30.1in /  1018.8hPa North 8.9mph /  14.3km/h 11.9mph /  19.1km/h 98% 0in /  0.0mm
07:37 40.5 °F /  4.7 °C 39.9 °F /  4.4 °C 30.1in /  1019.9hPa NNE 7.4mph /  11.9km/h 11.9mph /  19.1km/h 98% 0in /  0.0mm
07:42 40.5 °F /  4.7 °C 39.9 °F /  4.4 °C 30.1in /  1019.9hPa North 5.8mph /  9.3km/h 10.1mph /  16.3km/h 98% 0in /  0.0mm
07:47 40.5 °F /  4.7 °C 39.9 °F /  4.4 °C 30.1in /  1019.9hPa North 7.6mph /  12.2km/h 10.1mph /  16.3km/h 98% 0in /  0.0mm
07:52 40.3 °F /  4.6 °C 39.7 °F /  4.3 °C 30.1in /  1019.9hPa NNW 3.6mph /  5.8km/h 7.6mph /  12.2km/h 98% 0in /  0.0mm
07:57 40.3 °F /  4.6 °C 39.7 °F /  4.3 °C 30.1in /  1019.9hPa NNW 4.9mph /  7.9km/h 7.6mph /  12.2km/h 98% 0in /  0.0mm
08:02 40.3 °F /  4.6 °C 39.7 °F /  4.3 °C 30.1in /  1019.9hPa NNW 3.8mph /  6.1km/h 7.4mph /  11.9km/h 98% 0in /  0.0mm
08:07 40.3 °F /  4.6 °C 39.7 °F /  4.3 °C 30.2in /  1020.9hPa North 5.6mph /  9.0km/h 8.5mph /  13.7km/h 98% 0in /  0.0mm
08:12 40.3 °F /  4.6 °C 39.7 °F /  4.3 °C 30.2in /  1020.9hPa North 6.3mph /  10.1km/h 8.5mph /  13.7km/h 98% 0in /  0.0mm
08:17 40.3 °F /  4.6 °C 39.7 °F /  4.3 °C 30.2in /  1020.9hPa North 5.6mph /  9.0km/h 8.5mph /  13.7km/h 98% 0in /  0.0mm
08:22 40.1 °F /  4.5 °C 39.6 °F /  4.2 °C 30.2in /  1020.9hPa North 7.6mph /  12.2km/h 7.8mph /  12.6km/h 98% 0in /  0.0mm
08:27 40.1 °F /  4.5 °C 39.6 °F /  4.2 °C 30.2in /  1020.9hPa NNW 7.8mph /  12.6km/h 8.7mph /  14.0km/h 98% 0in /  0.0mm
08:32 40.1 °F /  4.5 °C 39.6 °F /  4.2 °C 30.2in /  1020.9hPa North 4mph /  6.4km/h 8.7mph /  14.0km/h 98% 0in /  0.0mm
08:37 40.1 °F /  4.5 °C 39.6 °F /  4.2 °C 30.2in /  1020.9hPa NNW 9.8mph /  15.8km/h 10.1mph /  16.3km/h 98% 0in /  0.0mm
08:42 40.1 °F /  4.5 °C 39.6 °F /  4.2 °C 30.2in /  1020.9hPa North 5.6mph /  9.0km/h 10.1mph /  16.3km/h 98% 0in /  0.0mm
08:47 39.9 °F /  4.4 °C 39.4 °F /  4.1 °C 30.2in /  1020.9hPa NNW 4.9mph /  7.9km/h 9.8mph /  15.8km/h 98% 0in /  0.0mm
08:52 39.9 °F /  4.4 °C 39.4 °F /  4.1 °C 30.1in /  1019.9hPa North 7.2mph /  11.6km/h 9.8mph /  15.8km/h 98% 0in /  0.0mm
08:57 39.9 °F /  4.4 °C 39.4 °F /  4.1 °C 30.1in /  1019.9hPa NNE 5.6mph /  9.0km/h 9.8mph /  15.8km/h 98% 0in /  0.0mm
09:02 39.9 °F /  4.4 °C 39.4 °F /  4.1 °C 30.1in /  1019.9hPa NNE 5.8mph /  9.3km/h 9.8mph /  15.8km/h 98% 0in /  0.0mm
09:07 39.7 °F /  4.3 °C 39.2 °F /  4.0 °C 30.2in /  1020.9hPa North 7.8mph /  12.6km/h 11mph /  17.7km/h 98% 0in /  0.0mm
09:12 39.7 °F /  4.3 °C 39.2 °F /  4.0 °C 30.2in /  1020.9hPa NNE 4.9mph /  7.9km/h 11mph /  17.7km/h 98% 0in /  0.0mm
09:17 39.7 °F /  4.3 °C 39.2 °F /  4.0 °C 30.2in /  1020.9hPa NNE 6.3mph /  10.1km/h 9.8mph /  15.8km/h 98% 0in /  0.0mm
09:22 39.9 °F /  4.4 °C 39.4 °F /  4.1 °C 30.2in /  1020.9hPa North 8.1mph /  13.0km/h 8.9mph /  14.3km/h 98% 0in /  0.0mm
09:27 39.7 °F /  4.3 °C 39.2 °F /  4.0 °C 30.2in /  1020.9hPa NNW 5.4mph /  8.7km/h 8.5mph /  13.7km/h 98% 0in /  0.0mm
09:32 39.7 °F /  4.3 °C 39.2 °F /  4.0 °C 30.2in /  1020.9hPa North 6.3mph /  10.1km/h 8.5mph /  13.7km/h 98% 0in /  0.0mm
09:37 39.7 °F /  4.3 °C 39.2 °F /  4.0 °C 30.2in /  1021.9hPa North 8.1mph /  13.0km/h 9.8mph /  15.8km/h 98% 0in /  0.0mm
09:42 39.7 °F /  4.3 °C 39.2 °F /  4.0 °C 30.2in /  1021.9hPa NNE 6mph /  9.7km/h 9.8mph /  15.8km/h 98% 0in /  0.0mm
09:47 39.9 °F /  4.4 °C 39.4 °F /  4.1 °C 30.2in /  1021.9hPa NE 5.6mph /  9.0km/h 8.1mph /  13.0km/h 98% 0in /  0.0mm
09:52 39.9 °F /  4.4 °C 39.4 °F /  4.1 °C 30.2in /  1021.9hPa NNE 1.6mph /  2.6km/h 6.5mph /  10.5km/h 98% 0in /  0.0mm
09:57 39.9 °F /  4.4 °C 39.4 °F /  4.1 °C 30.2in /  1021.9hPa NNE 7.4mph /  11.9km/h 7.8mph /  12.6km/h 98% 0in /  0.0mm
10:02 39.9 °F /  4.4 °C 39.4 °F /  4.1 °C 30.2in /  1021.9hPa North 8.5mph /  13.7km/h 8.5mph /  13.7km/h 98% 0in /  0.0mm
10:07 39.9 °F /  4.4 °C 39.4 °F /  4.1 °C 30.2in /  1021.9hPa NNE 4mph /  6.4km/h 8.7mph /  14.0km/h 98% 0in /  0.0mm
10:12 39.9 °F /  4.4 °C 39.4 °F /  4.1 °C 30.2in /  1021.9hPa NNE 5.6mph /  9.0km/h 8.7mph /  14.0km/h 98% 0in /  0.0mm
10:17 39.9 °F /  4.4 °C 39.4 °F /  4.1 °C 30.2in /  1021.9hPa North 4.9mph /  7.9km/h 9.6mph /  15.4km/h 98% 0in /  0.0mm
10:22 39.9 °F /  4.4 °C 39.4 °F /  4.1 °C 30.2in /  1021.9hPa North 7.4mph /  11.9km/h 9.6mph /  15.4km/h 98% 0in /  0.0mm
10:27 39.9 °F /  4.4 °C 39.4 °F /  4.1 °C 30.2in /  1021.9hPa NNE 4.3mph /  6.9km/h 8.7mph /  14.0km/h 98% 0in /  0.0mm
10:32 39.9 °F /  4.4 °C 39.4 °F /  4.1 °C 30.2in /  1021.9hPa North 6mph /  9.7km/h 8.7mph /  14.0km/h 98% 0in /  0.0mm
10:37 40.1 °F /  4.5 °C 39.6 °F /  4.2 °C 30.2in /  1021.9hPa North 6mph /  9.7km/h 8.5mph /  13.7km/h 98% 0in /  0.0mm
10:42 40.1 °F /  4.5 °C 39.6 °F /  4.2 °C 30.2in /  1021.9hPa NNW 6.3mph /  10.1km/h 9.6mph /  15.4km/h 98% 0in /  0.0mm
10:47 40.1 °F /  4.5 °C 39.6 °F /  4.2 °C 30.2in /  1021.9hPa North 5.6mph /  9.0km/h 9.6mph /  15.4km/h 98% 0in /  0.0mm
10:52 40.1 °F /  4.5 °C 39.6 °F /  4.2 °C 30.2in /  1021.9hPa North 5.4mph /  8.7km/h 9.6mph /  15.4km/h 98% 0in /  0.0mm
10:57 40.1 °F /  4.5 °C 39.6 °F /  4.2 °C 30.2in /  1021.9hPa North 9.6mph /  15.4km/h 9.6mph /  15.4km/h 98% 0in /  0.0mm
11:02 40.1 °F /  4.5 °C 39.6 °F /  4.2 °C 30.2in /  1021.9hPa North 5.6mph /  9.0km/h 9.6mph /  15.4km/h 98% 0in /  0.0mm
11:07 40.1 °F /  4.5 °C 39.6 °F /  4.2 °C 30.2in /  1022.9hPa North 3.8mph /  6.1km/h 9.6mph /  15.4km/h 98% 0in /  0.0mm
11:12 40.1 °F /  4.5 °C 39.6 °F /  4.2 °C 30.2in /  1022.9hPa North 3.8mph /  6.1km/h 8.7mph /  14.0km/h 98% 0in /  0.0mm
11:17 39.9 °F /  4.4 °C 39.4 °F /  4.1 °C 30.2in /  1022.9hPa North 8.7mph /  14.0km/h 8.7mph /  14.0km/h 98% 0in /  0.0mm
11:22 39.9 °F /  4.4 °C 39.4 °F /  4.1 °C 30.2in /  1022.9hPa North 3.4mph /  5.5km/h 9.6mph /  15.4km/h 98% 0in /  0.0mm
11:27 39.9 °F /  4.4 °C 39.4 °F /  4.1 °C 30.2in /  1022.9hPa NNE 6mph /  9.7km/h 10.7mph /  17.2km/h 98% 0in /  0.0mm
11:32 39.9 °F /  4.4 °C 39.4 °F /  4.1 °C 30.2in /  1022.9hPa North 4.3mph /  6.9km/h 10.7mph /  17.2km/h 98% 0in /  0.0mm
11:37 39.9 °F /  4.4 °C 39.4 °F /  4.1 °C 30.2in /  1022.9hPa NNE 5.4mph /  8.7km/h 10.7mph /  17.2km/h 98% 0in /  0.0mm
11:42 39.9 °F /  4.4 °C 39.4 °F /  4.1 °C 30.2in /  1022.9hPa North 8.1mph /  13.0km/h 9.6mph /  15.4km/h 98% 0in /  0.0mm
11:47 39.9 °F /  4.4 °C 39.4 °F /  4.1 °C 30.2in /  1022.9hPa North 8.5mph /  13.7km/h 10.1mph /  16.3km/h 98% 0in /  0.0mm
11:52 39.9 °F /  4.4 °C 39.4 °F /  4.1 °C 30.2in /  1022.9hPa NE 6.3mph /  10.1km/h 10.1mph /  16.3km/h 98% 0in /  0.0mm
11:57 39.9 °F /  4.4 °C 39.4 °F /  4.1 °C 30.2in /  1022.9hPa NE 8.5mph /  13.7km/h 9.8mph /  15.8km/h 98% 0in /  0.0mm
12:02 39.7 °F /  4.3 °C 39.2 °F /  4.0 °C 30.2in /  1022.9hPa NNE 5.8mph /  9.3km/h 10.1mph /  16.3km/h 98% 0in /  0.0mm
12:07 39.7 °F /  4.3 °C 39.2 °F /  4.0 °C 30.2in /  1022.9hPa NNE 3.4mph /  5.5km/h 10.1mph /  16.3km/h 98% 0in /  0.0mm
12:12 39.9 °F /  4.4 °C 39.4 °F /  4.1 °C 30.2in /  1022.9hPa NNW 11mph /  17.7km/h 11mph /  17.7km/h 98% 0in /  0.0mm
12:17 39.7 °F /  4.3 °C 39.2 °F /  4.0 °C 30.2in /  1022.9hPa North 13mph /  20.9km/h 13mph /  20.9km/h 98% 0in /  0.0mm
12:22 39.9 °F /  4.4 °C 39.4 °F /  4.1 °C 30.2in /  1022.9hPa NE 6.7mph /  10.8km/h 13mph /  20.9km/h 98% 0in /  0.0mm
12:27 40.1 °F /  4.5 °C 39.6 °F /  4.2 °C 30.2in /  1022.9hPa North 8.7mph /  14.0km/h 10.5mph /  16.9km/h 98% 0in /  0.0mm
12:32 39.9 °F /  4.4 °C 39.4 °F /  4.1 °C 30.2in /  1022.9hPa North 7.6mph /  12.2km/h 10.5mph /  16.9km/h 98% 0in /  0.0mm
12:37 40.1 °F /  4.5 °C 39.6 °F /  4.2 °C 30.2in /  1022.9hPa North 7.4mph /  11.9km/h 11mph /  17.7km/h 98% 0in /  0.0mm
12:42 39.9 °F /  4.4 °C 39.2 °F /  4.0 °C 30.2in /  1022.9hPa North 5.6mph /  9.0km/h 11mph /  17.7km/h 97% 0in /  0.0mm
12:47 39.9 °F /  4.4 °C 39.2 °F /  4.0 °C 30.2in /  1022.9hPa North 7.8mph /  12.6km/h 11mph /  17.7km/h 97% 0in /  0.0mm
12:52 39.9 °F /  4.4 °C 39.2 °F /  4.0 °C 30.2in /  1022.9hPa NNW 9.8mph /  15.8km/h 12.5mph /  20.1km/h 97% 0in /  0.0mm
12:57 39.7 °F /  4.3 °C 39 °F /  3.9 °C 30.2in /  1022.9hPa NE 5.6mph /  9.0km/h 12.5mph /  20.1km/h 97% 0in /  0.0mm
13:02 39.7 °F /  4.3 °C 39 °F /  3.9 °C 30.2in /  1022.9hPa North 5.6mph /  9.0km/h 12.5mph /  20.1km/h 97% 0in /  0.0mm
13:07 39.7 °F /  4.3 °C 39 °F /  3.9 °C 30.2in /  1022.9hPa North 5.8mph /  9.3km/h 12.1mph /  19.5km/h 97% 0in /  0.0mm
13:12 39.6 °F /  4.2 °C 38.8 °F /  3.8 °C 30.2in /  1022.9hPa NE 8.1mph /  13.0km/h 12.5mph /  20.1km/h 97% 0in /  0.0mm
13:17 39.6 °F /  4.2 °C 38.8 °F /  3.8 °C 30.2in /  1022.9hPa NNE 10.7mph /  17.2km/h 12.5mph /  20.1km/h 97% 0in /  0.0mm
13:22 39.4 °F /  4.1 °C 38.7 °F /  3.7 °C 30.2in /  1022.9hPa North 6mph /  9.7km/h 11mph /  17.7km/h 97% 0in /  0.0mm
13:27 39.4 °F /  4.1 °C 38.7 °F /  3.7 °C 30.2in /  1022.9hPa NNE 4.3mph /  6.9km/h 11mph /  17.7km/h 97% 0in /  0.0mm
13:32 39.4 °F /  4.1 °C 38.7 °F /  3.7 °C 30.2in /  1022.9hPa North 6.3mph /  10.1km/h 10.7mph /  17.2km/h 97% 0in /  0.0mm
13:37 39.4 °F /  4.1 °C 38.7 °F /  3.7 °C 30.2in /  1021.9hPa NNE 7.6mph /  12.2km/h 12.1mph /  19.5km/h 97% 0in /  0.0mm
13:42 39.6 °F /  4.2 °C 38.8 °F /  3.8 °C 30.2in /  1021.9hPa NE 5.6mph /  9.0km/h 12.1mph /  19.5km/h 97% 0in /  0.0mm
13:47 39.4 °F /  4.1 °C 38.7 °F /  3.7 °C 30.2in /  1021.9hPa NNE 6.3mph /  10.1km/h 11mph /  17.7km/h 97% 0in /  0.0mm
13:52 39.6 °F /  4.2 °C 38.8 °F /  3.8 °C 30.2in /  1022.9hPa North 8.9mph /  14.3km/h 11mph /  17.7km/h 97% 0in /  0.0mm
13:57 39.4 °F /  4.1 °C 38.7 °F /  3.7 °C 30.2in /  1022.9hPa North 9.8mph /  15.8km/h 10.7mph /  17.2km/h 97% 0in /  0.0mm
14:02 39.6 °F /  4.2 °C 38.8 °F /  3.8 °C 30.2in /  1022.9hPa North 5.4mph /  8.7km/h 11mph /  17.7km/h 97% 0in /  0.0mm
14:07 39.6 °F /  4.2 °C 38.8 °F /  3.8 °C 30.2in /  1022.9hPa North 7.2mph /  11.6km/h 11mph /  17.7km/h 97% 0in /  0.0mm
14:12 39.6 °F /  4.2 °C 38.8 °F /  3.8 °C 30.2in /  1022.9hPa North 5.6mph /  9.0km/h 10.3mph /  16.6km/h 97% 0in /  0.0mm
14:17 39.6 °F /  4.2 °C 38.8 °F /  3.8 °C 30.2in /  1022.9hPa North 4.9mph /  7.9km/h 8.7mph /  14.0km/h 97% 0in /  0.0mm
14:22 39.4 °F /  4.1 °C 38.7 °F /  3.7 °C 30.2in /  1022.9hPa North 5.4mph /  8.7km/h 8.9mph /  14.3km/h 97% 0in /  0.0mm
14:27 39.4 °F /  4.1 °C 38.7 °F /  3.7 °C 30.2in /  1022.9hPa North 6.3mph /  10.1km/h 10.7mph /  17.2km/h 97% 0in /  0.0mm
14:32 39.4 °F /  4.1 °C 38.7 °F /  3.7 °C 30.2in /  1022.9hPa North 6.3mph /  10.1km/h 10.7mph /  17.2km/h 97% 0in /  0.0mm
14:37 39.4 °F /  4.1 °C 38.7 °F /  3.7 °C 30.2in /  1022.9hPa NNE 7.4mph /  11.9km/h 7.4mph /  11.9km/h 97% 0in /  0.0mm
14:42 39.2 °F /  4.0 °C 38.5 °F /  3.6 °C 30.2in /  1022.9hPa North 7.8mph /  12.6km/h 10.3mph /  16.6km/h 97% 0in /  0.0mm
14:47 39 °F /  3.9 °C 38.3 °F /  3.5 °C 30.2in /  1022.9hPa North 4.3mph /  6.9km/h 11mph /  17.7km/h 97% 0in /  0.0mm
14:52 39 °F /  3.9 °C 38.3 °F /  3.5 °C 30.2in /  1022.9hPa NNW 3.4mph /  5.5km/h 12.1mph /  19.5km/h 97% 0in /  0.0mm
14:57 39 °F /  3.9 °C 38.3 °F /  3.5 °C 30.2in /  1022.9hPa North 7.4mph /  11.9km/h 12.1mph /  19.5km/h 97% 0in /  0.0mm
15:02 39 °F /  3.9 °C 38.3 °F /  3.5 °C 30.2in /  1022.9hPa North 10.3mph /  16.6km/h 12.5mph /  20.1km/h 97% 0in /  0.0mm
15:07 39 °F /  3.9 °C 38.3 °F /  3.5 °C 30.2in /  1021.9hPa NE 5.8mph /  9.3km/h 12.5mph /  20.1km/h 97% 0in /  0.0mm
15:12 39.2 °F /  4.0 °C 38.5 °F /  3.6 °C 30.2in /  1021.9hPa North 6.5mph /  10.5km/h 10.3mph /  16.6km/h 97% 0in /  0.0mm
15:17 39 °F /  3.9 °C 38.3 °F /  3.5 °C 30.2in /  1021.9hPa NE 3.6mph /  5.8km/h 11.4mph /  18.3km/h 97% 0in /  0.0mm
15:22 39.2 °F /  4.0 °C 38.5 °F /  3.6 °C 30.2in /  1022.9hPa NW 3.8mph /  6.1km/h 11.4mph /  18.3km/h 97% 0in /  0.0mm
15:27 39.2 °F /  4.0 °C 38.5 °F /  3.6 °C 30.2in /  1022.9hPa North 2.9mph /  4.7km/h 7.6mph /  12.2km/h 97% 0in /  0.0mm
15:32 39 °F /  3.9 °C 38.3 °F /  3.5 °C 30.2in /  1022.9hPa NE 5.6mph /  9.0km/h 7.6mph /  12.2km/h 97% 0in /  0.0mm
15:37 38.8 °F /  3.8 °C 38.1 °F /  3.4 °C 30.2in /  1023.9hPa North 6.5mph /  10.5km/h 9.2mph /  14.8km/h 97% 0in /  0.0mm
15:42 38.8 °F /  3.8 °C 38.1 °F /  3.4 °C 30.2in /  1023.9hPa North 5.6mph /  9.0km/h 9.2mph /  14.8km/h 97% 0in /  0.0mm
15:47 38.8 °F /  3.8 °C 38.1 °F /  3.4 °C 30.2in /  1023.9hPa North 6mph /  9.7km/h 8.9mph /  14.3km/h 97% 0in /  0.0mm
15:52 38.8 °F /  3.8 °C 38.1 °F /  3.4 °C 30.2in /  1023.9hPa North 4.9mph /  7.9km/h 6.9mph /  11.1km/h 97% 0in /  0.0mm
15:57 38.8 °F /  3.8 °C 38.1 °F /  3.4 °C 30.2in /  1023.9hPa North 6.5mph /  10.5km/h 7.8mph /  12.6km/h 97% 0in /  0.0mm
16:02 38.8 °F /  3.8 °C 38.1 °F /  3.4 °C 30.2in /  1023.9hPa North 3.6mph /  5.8km/h 7.8mph /  12.6km/h 97% 0in /  0.0mm
16:07 38.8 °F /  3.8 °C 38.1 °F /  3.4 °C 30.2in /  1023.9hPa North 6mph /  9.7km/h 7.8mph /  12.6km/h 97% 0in /  0.0mm
16:12 38.8 °F /  3.8 °C 38.1 °F /  3.4 °C 30.2in /  1023.9hPa North 4.3mph /  6.9km/h 7.8mph /  12.6km/h 97% 0in /  0.0mm
16:17 38.8 °F /  3.8 °C 38.1 °F /  3.4 °C 30.2in /  1023.9hPa NW 2.7mph /  4.3km/h 6.7mph /  10.8km/h 97% 0in /  0.0mm
16:22 38.8 °F /  3.8 °C 38.1 °F /  3.4 °C 30.2in /  1023.9hPa North 4.3mph /  6.9km/h 6.7mph /  10.8km/h 97% 0in /  0.0mm
16:27 38.8 °F /  3.8 °C 38.1 °F /  3.4 °C 30.2in /  1023.9hPa Calm   6.3mph /  10.1km/h 97% 0in /  0.0mm
16:32 38.8 °F /  3.8 °C 38.1 °F /  3.4 °C 30.2in /  1023.9hPa North 3.4mph /  5.5km/h 6.3mph /  10.1km/h 97% 0in /  0.0mm
16:37 38.8 °F /  3.8 °C 38.1 °F /  3.4 °C 30.3in /  1024.9hPa NNW 3.6mph /  5.8km/h 6.3mph /  10.1km/h 97% 0in /  0.0mm
16:42 38.8 °F /  3.8 °C 38.1 °F /  3.4 °C 30.3in /  1024.9hPa North 3.4mph /  5.5km/h 8.5mph /  13.7km/h 97% 0in /  0.0mm
16:47 39 °F /  3.9 °C 38.3 °F /  3.5 °C 30.3in /  1024.9hPa North 5.8mph /  9.3km/h 8.5mph /  13.7km/h 97% 0in /  0.0mm
16:52 39 °F /  3.9 °C 38.3 °F /  3.5 °C 30.3in /  1024.9hPa North 4.3mph /  6.9km/h 8.1mph /  13.0km/h 97% 0in /  0.0mm
16:57 39 °F /  3.9 °C 37.9 °F /  3.3 °C 30.3in /  1024.9hPa North 6.3mph /  10.1km/h 8.1mph /  13.0km/h 96% 0in /  0.0mm
17:02 38.8 °F /  3.8 °C 38.1 °F /  3.4 °C 30.3in /  1024.9hPa North 7.6mph /  12.2km/h 9.8mph /  15.8km/h 97% 0in /  0.0mm
17:07 38.8 °F /  3.8 °C 37.8 °F /  3.2 °C 30.3in /  1024.9hPa NE 5.6mph /  9.0km/h 9.8mph /  15.8km/h 96% 0in /  0.0mm
17:12 38.8 °F /  3.8 °C 37.8 °F /  3.2 °C 30.3in /  1024.9hPa North 3.6mph /  5.8km/h 8.9mph /  14.3km/h 96% 0in /  0.0mm
17:17 38.8 °F /  3.8 °C 37.8 °F /  3.2 °C 30.3in /  1024.9hPa NNE 4mph /  6.4km/h 8.7mph /  14.0km/h 96% 0in /  0.0mm
17:22 38.8 °F /  3.8 °C 37.8 °F /  3.2 °C 30.3in /  1024.9hPa NW 4.7mph /  7.6km/h 8.5mph /  13.7km/h 96% 0in /  0.0mm
17:27 38.7 °F /  3.7 °C 37.8 °F /  3.2 °C 30.3in /  1024.9hPa NNW 5.6mph /  9.0km/h 8.5mph /  13.7km/h 96% 0in /  0.0mm
17:32 38.7 °F /  3.7 °C 37.8 °F /  3.2 °C 30.3in /  1024.9hPa NNW 5.6mph /  9.0km/h 8.1mph /  13.0km/h 96% 0in /  0.0mm
17:37 38.7 °F /  3.7 °C 37.8 °F /  3.2 °C 30.2in /  1023.9hPa North 2.9mph /  4.7km/h 8.5mph /  13.7km/h 96% 0in /  0.0mm
17:42 38.7 °F /  3.7 °C 37.8 °F /  3.2 °C 30.2in /  1023.9hPa North 2.9mph /  4.7km/h 8.5mph /  13.7km/h 96% 0in /  0.0mm
17:47 38.5 °F /  3.6 °C 37.6 °F /  3.1 °C 30.2in /  1023.9hPa North 7.4mph /  11.9km/h 12.3mph /  19.8km/h 96% 0in /  0.0mm
17:52 38.5 °F /  3.6 °C 37.6 °F /  3.1 °C 30.3in /  1024.9hPa North 4.7mph /  7.6km/h 12.3mph /  19.8km/h 96% 0in /  0.0mm
17:57 38.5 °F /  3.6 °C 37.6 °F /  3.1 °C 30.3in /  1024.9hPa NNW 3.1mph /  5.0km/h 9.8mph /  15.8km/h 96% 0in /  0.0mm
18:02 38.5 °F /  3.6 °C 37.2 °F /  2.9 °C 30.3in /  1024.9hPa North 5.4mph /  8.7km/h 9.6mph /  15.4km/h 96% 0in /  0.0mm
18:07 38.5 °F /  3.6 °C 37.2 °F /  2.9 °C 30.3in /  1024.9hPa NNE 3.6mph /  5.8km/h 9.6mph /  15.4km/h 96% 0in /  0.0mm
18:12 38.5 °F /  3.6 °C 37.2 °F /  2.9 °C 30.3in /  1024.9hPa North 5.6mph /  9.0km/h 8.5mph /  13.7km/h 96% 0in /  0.0mm
18:17 38.1 °F /  3.4 °C 37 °F /  2.8 °C 30.3in /  1024.9hPa North 6.3mph /  10.1km/h 13mph /  20.9km/h 96% 0in /  0.0mm
18:22 38.1 °F /  3.4 °C 37 °F /  2.8 °C 30.3in /  1024.9hPa NNW 10.3mph /  16.6km/h 13mph /  20.9km/h 96% 0in /  0.0mm
18:27 38.1 °F /  3.4 °C 37 °F /  2.8 °C 30.3in /  1024.9hPa NNW 5.8mph /  9.3km/h 11mph /  17.7km/h 96% 0in /  0.0mm
18:32 37.9 °F /  3.3 °C 37.2 °F /  2.9 °C 30.3in /  1024.9hPa NNW 7.8mph /  12.6km/h 11mph /  17.7km/h 97% 0in /  0.0mm
18:37 37.9 °F /  3.3 °C 37.2 °F /  2.9 °C 30.3in /  1024.9hPa North 7.4mph /  11.9km/h 9.8mph /  15.8km/h 97% 0in /  0.0mm
18:42 37.9 °F /  3.3 °C 37.2 °F /  2.9 °C 30.3in /  1024.9hPa NNW 7.4mph /  11.9km/h 12.1mph /  19.5km/h 97% 0in /  0.0mm
18:47 37.9 °F /  3.3 °C 37.2 °F /  2.9 °C 30.3in /  1024.9hPa North 4mph /  6.4km/h 12.1mph /  19.5km/h 97% 0in /  0.0mm
18:52 37.9 °F /  3.3 °C 37.2 °F /  2.9 °C 30.3in /  1026.0hPa North 5.8mph /  9.3km/h 10.1mph /  16.3km/h 97% 0in /  0.0mm
18:57 37.9 °F /  3.3 °C 37.2 °F /  2.9 °C 30.3in /  1026.0hPa NNE 5.4mph /  8.7km/h 10.1mph /  16.3km/h 97% 0in /  0.0mm
18:58 37.9 °F /  3.3 °C 37.2 °F /  2.9 °C 30.3in /  1026.0hPa North 6mph /  9.7km/h 10.1mph /  16.3km/h 97% 0in /  0.0mm
19:03 37.9 °F /  3.3 °C 37.2 °F /  2.9 °C 30.3in /  1026.0hPa North 8.1mph /  13.0km/h 12.5mph /  20.1km/h 97% 0in /  0.0mm
19:08 37.9 °F /  3.3 °C 37.2 °F /  2.9 °C 30.3in /  1024.9hPa North 4mph /  6.4km/h 12.5mph /  20.1km/h 97% 0in /  0.0mm
19:13 37.9 °F /  3.3 °C 37.2 °F /  2.9 °C 30.3in /  1024.9hPa North 6.5mph /  10.5km/h 12.3mph /  19.8km/h 97% 0in /  0.0mm
19:18 37.9 °F /  3.3 °C 37.2 °F /  2.9 °C 30.3in /  1024.9hPa NE 5.6mph /  9.0km/h 8.5mph /  13.7km/h 97% 0in /  0.0mm
19:23 37.9 °F /  3.3 °C 37.2 °F /  2.9 °C 30.3in /  1026.0hPa North 6mph /  9.7km/h 7.6mph /  12.2km/h 97% 0in /  0.0mm
19:28 37.9 °F /  3.3 °C 37.2 °F /  2.9 °C 30.3in /  1026.0hPa NNE 6mph /  9.7km/h 8.9mph /  14.3km/h 97% 0in /  0.0mm
19:33 37.9 °F /  3.3 °C 37.2 °F /  2.9 °C 30.3in /  1026.0hPa North 8.9mph /  14.3km/h 8.9mph /  14.3km/h 97% 0in /  0.0mm
19:38 37.9 °F /  3.3 °C 37.2 °F /  2.9 °C 30.3in /  1026.0hPa North 8.7mph /  14.0km/h 9.4mph /  15.1km/h 97% 0in /  0.0mm
19:43 37.9 °F /  3.3 °C 37.2 °F /  2.9 °C 30.3in /  1026.0hPa NNE 7.6mph /  12.2km/h 9.4mph /  15.1km/h 97% 0in /  0.0mm
19:48 37.9 °F /  3.3 °C 37.2 °F /  2.9 °C 30.3in /  1026.0hPa North 6mph /  9.7km/h 8.7mph /  14.0km/h 97% 0in /  0.0mm
19:53 37.9 °F /  3.3 °C 37.2 °F /  2.9 °C 30.3in /  1026.0hPa North 6.5mph /  10.5km/h 10.7mph /  17.2km/h 97% 0in /  0.0mm
19:58 37.8 °F /  3.2 °C 37 °F /  2.8 °C 30.3in /  1026.0hPa North 6mph /  9.7km/h 10.7mph /  17.2km/h 97% 0in /  0.0mm
20:03 37.8 °F /  3.2 °C 37 °F /  2.8 °C 30.3in /  1026.0hPa North 5.6mph /  9.0km/h 10.7mph /  17.2km/h 97% 0in /  0.0mm
20:08 37.8 °F /  3.2 °C 37 °F /  2.8 °C 30.3in /  1026.0hPa NNW 8.5mph /  13.7km/h 10.7mph /  17.2km/h 97% 0in /  0.0mm
20:13 37.8 °F /  3.2 °C 37 °F /  2.8 °C 30.3in /  1026.0hPa NNE 4.3mph /  6.9km/h 13.2mph /  21.2km/h 97% 0in /  0.0mm
20:18 37.8 °F /  3.2 °C 36.9 °F /  2.7 °C 30.3in /  1026.0hPa North 7.6mph /  12.2km/h 10.3mph /  16.6km/h 96% 0in /  0.0mm
20:23 37.8 °F /  3.2 °C 36.9 °F /  2.7 °C 30.3in /  1026.0hPa North 7.6mph /  12.2km/h 10.3mph /  16.6km/h 96% 0in /  0.0mm
20:28 37.8 °F /  3.2 °C 36.9 °F /  2.7 °C 30.3in /  1026.0hPa North 6mph /  9.7km/h 10.1mph /  16.3km/h 96% 0in /  0.0mm
20:33 37.8 °F /  3.2 °C 36.9 °F /  2.7 °C 30.3in /  1026.0hPa NNE 3.6mph /  5.8km/h 10.1mph /  16.3km/h 96% 0in /  0.0mm
20:38 37.8 °F /  3.2 °C 36.9 °F /  2.7 °C 30.3in /  1026.0hPa NNW 2.9mph /  4.7km/h 8.7mph /  14.0km/h 96% 0in /  0.0mm
20:43 37.8 °F /  3.2 °C 36.9 °F /  2.7 °C 30.3in /  1026.0hPa North 5.4mph /  8.7km/h 8.7mph /  14.0km/h 96% 0in /  0.0mm
20:48 37.8 °F /  3.2 °C 36.9 °F /  2.7 °C 30.3in /  1026.0hPa North 4.5mph /  7.2km/h 9.6mph /  15.4km/h 96% 0in /  0.0mm
20:53 37.8 °F /  3.2 °C 36.9 °F /  2.7 °C 30.3in /  1026.0hPa North 4mph /  6.4km/h 9.6mph /  15.4km/h 96% 0in /  0.0mm
20:58 37.8 °F /  3.2 °C 36.9 °F /  2.7 °C 30.3in /  1026.0hPa North 5.6mph /  9.0km/h 8.9mph /  14.3km/h 96% 0in /  0.0mm
21:03 37.6 °F /  3.1 °C 36.7 °F /  2.6 °C 30.3in /  1026.0hPa North 6.3mph /  10.1km/h 8.9mph /  14.3km/h 96% 0in /  0.0mm
21:08 37.6 °F /  3.1 °C 36.7 °F /  2.6 °C 30.3in /  1027.0hPa NNE 8.1mph /  13.0km/h 11mph /  17.7km/h 96% 0in /  0.0mm
21:13 37.6 °F /  3.1 °C 36.7 °F /  2.6 °C 30.3in /  1027.0hPa North 7.8mph /  12.6km/h 11mph /  17.7km/h 96% 0in /  0.0mm
21:18 37.6 °F /  3.1 °C 36.3 °F /  2.4 °C 30.3in /  1027.0hPa NNE 4.7mph /  7.6km/h 11mph /  17.7km/h 96% 0in /  0.0mm
21:23 37.6 °F /  3.1 °C 36.3 °F /  2.4 °C 30.3in /  1026.0hPa North 5.4mph /  8.7km/h 8.7mph /  14.0km/h 96% 0in /  0.0mm
21:28 37.6 °F /  3.1 °C 36.3 °F /  2.4 °C 30.3in /  1026.0hPa NW 8.1mph /  13.0km/h 8.7mph /  14.0km/h 96% 0in /  0.0mm
21:33 37.6 °F /  3.1 °C 36.3 °F /  2.4 °C 30.3in /  1026.0hPa North 4.3mph /  6.9km/h 8.9mph /  14.3km/h 96% 0in /  0.0mm
21:38 37.6 °F /  3.1 °C 36.3 °F /  2.4 °C 30.3in /  1026.0hPa NNE 4.9mph /  7.9km/h 8.9mph /  14.3km/h 96% 0in /  0.0mm
21:43 37.6 °F /  3.1 °C 36.3 °F /  2.4 °C 30.3in /  1026.0hPa North 6.3mph /  10.1km/h 8.1mph /  13.0km/h 96% 0in /  0.0mm
21:48 37.6 °F /  3.1 °C 36.3 °F /  2.4 °C 30.3in /  1026.0hPa North 5.4mph /  8.7km/h 9.6mph /  15.4km/h 96% 0in /  0.0mm
21:53 37.2 °F /  2.9 °C 36.3 °F /  2.4 °C 30.3in /  1026.0hPa North 6mph /  9.7km/h 9.6mph /  15.4km/h 96% 0in /  0.0mm
21:58 37.2 °F /  2.9 °C 36.3 °F /  2.4 °C 30.3in /  1026.0hPa North 7.4mph /  11.9km/h 9.2mph /  14.8km/h 96% 0in /  0.0mm
22:03 37.2 °F /  2.9 °C 36.3 °F /  2.4 °C 30.3in /  1026.0hPa North 5.4mph /  8.7km/h 8.7mph /  14.0km/h 96% 0in /  0.0mm
22:08 37.2 °F /  2.9 °C 36.3 °F /  2.4 °C 30.3in /  1027.0hPa North 8.5mph /  13.7km/h 10.1mph /  16.3km/h 96% 0in /  0.0mm
22:13 37.2 °F /  2.9 °C 36.3 °F /  2.4 °C 30.3in /  1027.0hPa North 7.6mph /  12.2km/h 10.1mph /  16.3km/h 96% 0in /  0.0mm
22:18 37.2 °F /  2.9 °C 36.3 °F /  2.4 °C 30.3in /  1027.0hPa NNE 5.8mph /  9.3km/h 9.2mph /  14.8km/h 96% 0in /  0.0mm
22:23 37.2 °F /  2.9 °C 36.3 °F /  2.4 °C 30.3in /  1026.0hPa NNE 6.5mph /  10.5km/h 8.5mph /  13.7km/h 96% 0in /  0.0mm
22:28 37.2 °F /  2.9 °C 36.3 °F /  2.4 °C 30.3in /  1026.0hPa NNW 6.3mph /  10.1km/h 8.7mph /  14.0km/h 96% 0in /  0.0mm
22:33 37.2 °F /  2.9 °C 36.3 °F /  2.4 °C 30.3in /  1026.0hPa North 4.9mph /  7.9km/h 9.8mph /  15.8km/h 96% 0in /  0.0mm
22:38 37.2 °F /  2.9 °C 36.3 °F /  2.4 °C 30.3in /  1026.0hPa North 3.1mph /  5.0km/h 11mph /  17.7km/h 96% 0in /  0.0mm
22:43 37 °F /  2.8 °C 36.3 °F /  2.4 °C 30.3in /  1026.0hPa North 6mph /  9.7km/h 11mph /  17.7km/h 97% 0in /  0.0mm
22:48 37 °F /  2.8 °C 36.3 °F /  2.4 °C 30.3in /  1026.0hPa NNE 3.4mph /  5.5km/h 8.7mph /  14.0km/h 97% 0in /  0.0mm
22:53 37 °F /  2.8 °C 36.3 °F /  2.4 °C 30.3in /  1027.0hPa NNW 3.4mph /  5.5km/h 8.5mph /  13.7km/h 97% 0in /  0.0mm
22:58 37 °F /  2.8 °C 36.3 °F /  2.4 °C 30.3in /  1027.0hPa North 4.7mph /  7.6km/h 7.8mph /  12.6km/h 97% 0in /  0.0mm
23:03 37 °F /  2.8 °C 36.3 °F /  2.4 °C 30.3in /  1027.0hPa North 5.4mph /  8.7km/h 7.8mph /  12.6km/h 97% 0in /  0.0mm
23:08 37 °F /  2.8 °C 36.3 °F /  2.4 °C 30.3in /  1026.0hPa North 5.6mph /  9.0km/h 8.1mph /  13.0km/h 97% 0in /  0.0mm
23:13 37 °F /  2.8 °C 36.3 °F /  2.4 °C 30.3in /  1026.0hPa NNE 5.6mph /  9.0km/h 8.1mph /  13.0km/h 97% 0in /  0.0mm
23:18 37 °F /  2.8 °C 36.3 °F /  2.4 °C 30.3in /  1026.0hPa NNE 3.8mph /  6.1km/h 6.5mph /  10.5km/h 97% 0in /  0.0mm
23:23 37 °F /  2.8 °C 36.3 °F /  2.4 °C 30.3in /  1026.0hPa North 4.3mph /  6.9km/h 6.3mph /  10.1km/h 97% 0in /  0.0mm
23:28 37 °F /  2.8 °C 36.3 °F /  2.4 °C 30.3in /  1026.0hPa NNE 6.3mph /  10.1km/h 6.3mph /  10.1km/h 97% 0in /  0.0mm
23:33 36.9 °F /  2.7 °C 36.1 °F /  2.3 °C 30.3in /  1026.0hPa North 6.9mph /  11.1km/h 8.5mph /  13.7km/h 97% 0in /  0.0mm
23:38 36.9 °F /  2.7 °C 36.1 °F /  2.3 °C 30.3in /  1027.0hPa NE 7.4mph /  11.9km/h 8.5mph /  13.7km/h 97% 0in /  0.0mm
23:43 36.9 °F /  2.7 °C 36.1 °F /  2.3 °C 30.3in /  1027.0hPa North 4.3mph /  6.9km/h 7.6mph /  12.2km/h 97% 0in /  0.0mm
23:48 36.9 °F /  2.7 °C 36.1 °F /  2.3 °C 30.3in /  1027.0hPa North 6mph /  9.7km/h 7.4mph /  11.9km/h 97% 0in /  0.0mm
23:53 36.9 °F /  2.7 °C 36.1 °F /  2.3 °C 30.3in /  1027.0hPa NE 4mph /  6.4km/h 8.5mph /  13.7km/h 97% 0in /  0.0mm
23:58 36.9 °F /  2.7 °C 36.1 °F /  2.3 °C 30.3in /  1027.0hPa NNE 3.8mph /  6.1km/h 8.5mph /  13.7km/h 97% 0in /  0.0mm
Données Historique de Météo Turbie

Mise a jour : 21/05/2018 16:42:13
Généré par Cumulus 1.9.4 (1099)